Weather at Dane County Regional Truax Field

Public forecast

Using degrees Fahrenheit for public forecast. Weather courtesy of forecast.io.

Current aviation weather report (METAR) for Dane County Regional Truax Field

Retrieved 2020/11/27 20:53 UTC (59 minutes ago):

KMSN 272053Z 30007G15KT 10SM FEW035 05/M06 A3004 RMK AO2 SLP181 T00501061 55007

Aviation forecast (TAF) for Dane County Regional Truax Field

Retrieved 2020/11/27 18:22 UTC (4 hours ago):

TAF KMSN 271720Z 2718/2818 29009KT P6SM SCT025 FM280500 27004KT P6SM FEW250 FM280800 24005KT P6SM SKC FM281700 23010G18KT P6SM SKC